Time;durP1;ratioP1;P1;durP2;ratioP2;P2;SDS_P1;SDS_P2;PMS_P1;PMS_P2;Temp;Humidity;BMP_temperature;BMP_pressure;BME280_temperature;BME280_humidity;BME280_pressure;Samples;Min_cycle;Max_cycle;Signal;HPM_P1;HPM_P2
2022/05/22 00:00:16;;;;;;;10.27;2.78;;;;;;;15.08;100.00;100677.75;5142710;27;20547;-83
2022/05/22 00:02:43;;;;;;;11.70;2.30;;;;;;;15.14;100.00;100677.44;5146421;27;20408;-83
2022/05/22 00:05:15;;;;;;;9.40;2.08;;;;;;;15.08;100.00;100661.94;5143616;27;20459;-83
2022/05/22 00:07:41;;;;;;;9.75;2.63;;;;;;;15.27;100.00;100677.56;5144965;27;20047;-83
2022/05/22 00:10:09;;;;;;;10.43;2.22;;;;;;;14.85;100.00;100658.81;5144033;27;20488;-83
2022/05/22 00:12:36;;;;;;;8.88;2.38;;;;;;;14.87;100.00;100649.03;5145884;27;20505;-82
2022/05/22 00:15:04;;;;;;;11.27;2.55;;;;;;;14.80;100.00;100637.16;5142514;27;20043;-83
2022/05/22 00:17:30;;;;;;;7.55;2.20;;;;;;;15.26;100.00;100649.47;5143164;27;20051;-83
2022/05/22 00:19:57;;;;;;;11.88;2.90;;;;;;;15.40;100.00;100662.69;5146921;27;20095;-83
2022/05/22 00:22:26;;;;;;;8.25;2.17;;;;;;;15.29;100.00;100646.66;5146014;27;20038;-83
2022/05/22 00:24:53;;;;;;;12.60;2.70;;;;;;;14.99;100.00;100637.78;5149491;27;20047;-83
2022/05/22 00:27:19;;;;;;;10.07;2.30;;;;;;;15.18;100.00;100644.66;5143088;27;20050;-83
2022/05/22 00:29:46;;;;;;;7.90;2.35;;;;;;;14.87;100.00;100624.47;5160588;27;20058;-83
2022/05/22 00:32:13;;;;;;;9.43;2.22;;;;;;;14.98;100.00;100617.66;5144147;27;20511;-83
2022/05/22 00:34:40;;;;;;;10.35;2.08;;;;;;;14.79;100.00;100614.38;5143625;27;20043;-83
2022/05/22 00:37:07;;;;;;;12.05;2.25;;;;;;;14.83;100.00;100622.97;5143690;27;20481;-83
2022/05/22 00:39:35;;;;;;;10.30;2.25;;;;;;;14.48;100.00;100607.31;5141734;27;20054;-83
2022/05/22 00:42:13;;;;;;;8.50;2.15;;;;;;;14.76;100.00;100591.66;5147637;27;20034;-83
2022/05/22 00:44:40;;;;;;;10.00;2.80;;;;;;;14.73;100.00;100610.31;5142839;27;20054;-83
2022/05/22 00:47:06;;;;;;;13.35;3.03;;;;;;;14.82;100.00;100598.41;5141182;27;20065;-83
2022/05/22 00:49:34;;;;;;;10.57;2.78;;;;;;;14.40;100.00;100602.50;5145783;27;20133;-83
2022/05/22 00:52:04;;;;;;;10.63;2.60;;;;;;;14.28;100.00;100604.00;5145013;27;20400;-84
2022/05/22 00:54:42;;;;;;;8.85;2.20;;;;;;;14.27;100.00;100578.63;5142557;27;20129;-83
2022/05/22 00:57:18;;;;;;;12.05;2.53;;;;;;;14.29;100.00;100568.84;5144219;27;20046;-83
2022/05/22 00:59:50;;;;;;;7.68;1.90;;;;;;;14.13;100.00;100576.75;5141681;27;20378;-83
2022/05/22 01:02:17;;;;;;;10.20;2.70;;;;;;;13.95;100.00;100589.13;5147733;27;20064;-83
2022/05/22 01:04:46;;;;;;;12.27;2.65;;;;;;;14.20;100.00;100595.66;5138340;27;20043;-83
2022/05/22 01:07:13;;;;;;;8.93;2.25;;;;;;;14.00;100.00;100571.28;5144149;27;20063;-84
2022/05/22 01:09:40;;;;;;;14.20;2.72;;;;;;;14.08;100.00;100554.22;5141998;27;20051;-84
2022/05/22 01:12:29;;;;;;;11.80;2.45;;;;;;;13.91;100.00;100568.31;5143500;27;20225;-84
2022/05/22 01:14:56;;;;;;;8.80;2.10;;;;;;;14.09;100.00;100563.81;5142069;27;20429;-83
2022/05/22 01:17:23;;;;;;;8.43;1.80;;;;;;;14.29;100.00;100573.25;5141465;27;20043;-84
2022/05/22 01:19:58;;;;;;;7.13;2.10;;;;;;;14.48;100.00;100592.34;5142160;27;20492;-84
2022/05/22 01:22:27;;;;;;;13.93;3.17;;;;;;;14.40;100.00;100594.59;5141264;27;20045;-83
2022/05/22 01:24:55;;;;;;;10.20;2.10;;;;;;;14.61;100.00;100576.75;5147624;27;20047;-83
2022/05/22 01:27:24;;;;;;;8.38;2.38;;;;;;;14.64;100.00;100587.09;5139329;27;20047;-85
2022/05/22 01:30:12;;;;;;;9.20;2.13;;;;;;;14.20;100.00;100541.25;5142270;27;20476;-83
2022/05/22 01:32:43;;;;;;;16.08;2.50;;;;;;;14.72;100.00;100581.41;5142006;27;20049;-82
2022/05/22 01:35:15;;;;;;;9.07;2.33;;;;;;;14.98;100.00;100590.47;5139985;27;20493;-83
2022/05/22 01:37:43;;;;;;;9.73;2.43;;;;;;;14.89;100.00;100588.31;5143838;27;20129;-84
2022/05/22 01:40:11;;;;;;;8.55;2.05;;;;;;;14.77;100.00;100582.00;5141388;27;20050;-84
2022/05/22 01:42:39;;;;;;;13.50;3.20;;;;;;;14.86;100.00;100581.47;5140926;27;20500;-84
2022/05/22 01:45:08;;;;;;;12.77;2.65;;;;;;;15.01;100.00;100571.78;5139974;27;20900;-84
2022/05/22 01:47:36;;;;;;;11.52;3.05;;;;;;;14.72;100.00;100571.72;5140343;27;20057;-85
2022/05/22 01:50:06;;;;;;;9.60;1.92;;;;;;;14.88;100.00;100568.19;5143623;27;20047;-84
2022/05/22 01:52:33;;;;;;;6.55;2.13;;;;;;;14.55;100.00;100553.34;5143357;27;20047;-84
2022/05/22 01:55:00;;;;;;;11.57;2.17;;;;;;;14.74;100.00;100561.09;5145028;27;20042;-84
2022/05/22 01:57:29;;;;;;;12.93;2.85;;;;;;;14.23;100.00;100556.84;5138612;27;20411;-84
2022/05/22 01:59:56;;;;;;;8.75;2.28;;;;;;;14.18;100.00;100552.78;5141272;27;20046;-84
2022/05/22 02:02:24;;;;;;;7.55;2.42;;;;;;;14.03;100.00;100541.31;5138678;27;20043;-84
2022/05/22 02:04:51;;;;;;;10.65;2.42;;;;;;;14.33;100.00;100536.13;5142525;27;20051;-84
2022/05/22 02:10:04;;;;;;;11.57;2.75;;;;;;;13.77;100.00;100537.47;5142386;27;20082;-85
2022/05/22 02:12:31;;;;;;;13.77;3.30;;;;;;;13.81;100.00;100534.63;5145078;27;20388;-83
2022/05/22 02:14:58;;;;;;;16.38;3.28;;;;;;;14.09;100.00;100509.38;5144711;27;20049;-83
2022/05/22 02:17:25;;;;;;;9.70;2.63;;;;;;;14.08;100.00;100509.47;5145497;27;20061;-83
2022/05/22 02:19:52;;;;;;;13.25;2.53;;;;;;;13.85;100.00;100482.66;5146945;27;20057;-83
2022/05/22 02:22:18;;;;;;;10.75;2.20;;;;;;;13.66;100.00;100493.34;5146387;27;20046;-85
2022/05/22 02:24:53;;;;;;;10.27;2.30;;;;;;;14.04;100.00;100519.31;5147815;27;20053;-83
2022/05/22 02:27:21;;;;;;;13.50;3.40;;;;;;;14.08;100.00;100497.16;5144321;27;20055;-83
2022/05/22 02:29:48;;;;;;;11.73;2.50;;;;;;;13.82;100.00;100483.66;5150083;27;20051;-83
2022/05/22 02:32:14;;;;;;;12.77;3.08;;;;;;;13.37;100.00;100482.63;5151611;27;20046;-85
2022/05/22 02:34:41;;;;;;;11.73;2.53;;;;;;;13.88;100.00;100494.78;5147558;27;20130;-85
2022/05/22 02:37:08;;;;;;;15.52;3.28;;;;;;;13.62;100.00;100502.34;5148529;27;20079;-85
2022/05/22 02:39:35;;;;;;;16.77;2.67;;;;;;;13.62;100.00;100476.88;5145991;27;20057;-85
2022/05/22 02:42:03;;;;;;;11.77;2.90;;;;;;;14.09;100.00;100500.66;5145132;27;20077;-85
2022/05/22 02:44:30;;;;;;;16.50;3.92;;;;;;;13.54;100.00;100441.41;5147788;27;20073;-84
2022/05/22 02:46:57;;;;;;;12.13;2.72;;;;;;;13.81;100.00;100470.59;5141444;27;20431;-84
2022/05/22 02:49:24;;;;;;;21.95;4.00;;;;;;;13.79;100.00;100464.56;5144384;27;20099;-85
2022/05/22 02:51:51;;;;;;;17.27;2.97;;;;;;;13.57;100.00;100484.16;5145439;27;20065;-85
2022/05/22 02:54:18;;;;;;;11.82;2.75;;;;;;;13.64;100.00;100482.06;5145318;27;20046;-85
2022/05/22 02:56:45;;;;;;;13.45;3.67;;;;;;;13.45;100.00;100455.88;5144283;27;20055;-85
2022/05/22 02:59:12;;;;;;;13.15;3.08;;;;;;;13.00;100.00;100460.84;5145950;27;20065;-85
2022/05/22 03:01:38;;;;;;;12.43;3.17;;;;;;;13.14;100.00;100441.72;5146456;27;20051;-85
2022/05/22 03:04:05;;;;;;;21.13;3.40;;;;;;;13.41;100.00;100476.25;5145261;27;20407;-84
2022/05/22 03:06:38;;;;;;;16.83;3.65;;;;;;;13.64;100.00;100476.78;5145671;27;20043;-85
2022/05/22 03:09:14;;;;;;;16.63;3.13;;;;;;;13.37;100.00;100445.78;5147257;27;20640;-85
2022/05/22 03:11:41;;;;;;;15.02;3.47;;;;;;;13.51;100.00;100429.28;5151837;27;20043;-85
2022/05/22 03:14:10;;;;;;;11.90;2.85;;;;;;;13.82;100.00;100464.41;5143663;27;20043;-85
2022/05/22 03:16:37;;;;;;;12.98;3.45;;;;;;;13.94;100.00;100453.19;5144032;27;20057;-85
2022/05/22 03:19:03;;;;;;;12.38;3.08;;;;;;;13.93;100.00;100479.59;5144704;27;20046;-84
2022/05/22 03:21:30;;;;;;;13.63;3.13;;;;;;;13.61;100.00;100469.91;5148401;27;20053;-85
2022/05/22 03:23:57;;;;;;;13.30;3.53;;;;;;;13.75;100.00;100455.16;5144199;27;20053;-85
2022/05/22 03:26:24;;;;;;;16.05;3.25;;;;;;;13.90;100.00;100480.63;5144895;27;20655;-85
2022/05/22 03:28:50;;;;;;;15.68;3.97;;;;;;;13.50;100.00;100466.19;5141694;27;20047;-85
2022/05/22 03:31:17;;;;;;;13.90;3.65;;;;;;;13.72;100.00;100456.16;5153523;27;20134;-85
2022/05/22 03:33:44;;;;;;;13.38;3.33;;;;;;;13.65;100.00;100405.69;5149873;27;20046;-85
2022/05/22 03:36:11;;;;;;;18.65;3.92;;;;;;;13.37;100.00;100430.03;5140321;27;20535;-85
2022/05/22 03:38:37;;;;;;;13.02;3.30;;;;;;;13.20;100.00;100387.97;5141246;27;20042;-85
2022/05/22 03:41:05;;;;;;;13.77;3.15;;;;;;;13.70;100.00;100451.91;5156187;27;20043;-84
2022/05/22 03:43:31;;;;;;;20.30;3.97;;;;;;;13.36;100.00;100411.69;5155442;27;20494;-85
2022/05/22 03:45:58;;;;;;;14.73;2.88;;;;;;;13.53;100.00;100423.91;5138466;27;20067;-85
2022/05/22 03:48:25;;;;;;;15.02;3.20;;;;;;;13.63;100.00;100439.13;5142309;27;20055;-84
2022/05/22 03:50:52;;;;;;;12.73;4.13;;;;;;;13.55;100.00;100427.31;5153522;27;20043;-85
2022/05/22 03:53:19;;;;;;;11.85;2.78;;;;;;;13.21;100.00;100414.19;5155345;27;20395;-84
2022/05/22 03:55:47;;;;;;;18.58;4.32;;;;;;;13.23;100.00;100407.06;5145843;27;20143;-84
2022/05/22 03:58:18;;;;;;;15.00;3.90;;;;;;;13.44;100.00;100391.09;5148085;27;20051;-84
2022/05/22 04:00:45;;;;;;;14.88;2.97;;;;;;;13.63;100.00;100372.47;5132730;27;20134;-84
2022/05/22 04:03:12;;;;;;;11.65;2.63;;;;;;;13.94;100.00;100383.91;5134177;27;20046;-84
2022/05/22 04:05:39;;;;;;;10.27;2.50;;;;;;;14.06;100.00;100406.91;5131953;27;20082;-85
2022/05/22 04:08:06;;;;;;;9.52;2.30;;;;;;;14.44;100.00;100417.81;5146934;27;20063;-85
2022/05/22 04:10:36;;;;;;;16.85;3.38;;;;;;;14.69;100.00;100449.81;5132743;27;20473;-85
2022/05/22 04:13:04;;;;;;;14.82;3.47;;;;;;;14.25;100.00;100414.56;5133973;27;20589;-85
2022/05/22 04:15:31;;;;;;;15.75;3.60;;;;;;;14.33;100.00;100422.06;5132886;27;20055;-85
2022/05/22 04:17:58;;;;;;;11.93;3.53;;;;;;;14.31;100.00;100408.97;5132351;27;20059;-84
2022/05/22 04:20:25;;;;;;;7.43;2.10;;;;;;;14.77;100.00;100398.34;5152826;27;20046;-85
2022/05/22 04:25:37;;;;;;;13.85;3.05;;;;;;;14.52;100.00;100369.09;5133459;27;20050;-85
2022/05/22 04:28:04;;;;;;;11.88;2.83;;;;;;;14.31;100.00;100372.09;5131719;27;20057;-85
2022/05/22 04:30:30;;;;;;;16.50;3.17;;;;;;;14.20;100.00;100390.28;5132704;27;20053;-85
2022/05/22 04:32:57;;;;;;;17.48;3.50;;;;;;;14.15;100.00;100352.88;5137316;27;20047;-85
2022/05/22 04:35:24;;;;;;;13.98;3.10;;;;;;;14.47;100.00;100387.00;5136129;27;20053;-85
2022/05/22 04:37:51;;;;;;;12.68;2.50;;;;;;;14.42;100.00;100380.19;5131865;27;20408;-85
2022/05/22 04:40:18;;;;;;;18.65;3.33;;;;;;;14.01;100.00;100359.78;5148818;27;20053;-85
2022/05/22 04:42:45;;;;;;;16.42;3.20;;;;;;;14.16;100.00;100362.47;5153690;27;20480;-85
2022/05/22 04:45:12;;;;;;;14.25;3.42;;;;;;;14.15;100.00;100351.09;5152774;27;20070;-85
2022/05/22 04:47:41;;;;;;;9.95;2.33;;;;;;;14.28;100.00;100395.13;5152187;27;20046;-84
2022/05/22 04:50:09;;;;;;;11.07;3.00;;;;;;;13.97;100.00;100354.78;5152876;27;20593;-84
2022/05/22 04:52:36;;;;;;;16.20;3.47;;;;;;;14.23;100.00;100354.09;5144306;27;20567;-85
2022/05/22 04:55:04;;;;;;;12.57;3.80;;;;;;;14.24;100.00;100378.66;5132300;27;20400;-84
2022/05/22 04:57:30;;;;;;;19.50;4.13;;;;;;;14.16;100.00;100367.72;5133243;27;20554;-85
2022/05/22 04:59:58;;;;;;;16.83;2.67;;;;;;;14.76;100.00;100366.81;5132564;27;20078;-84
2022/05/22 05:02:25;;;;;;;17.02;4.22;;;;;;;14.33;100.00;100361.47;5140059;27;20043;-85
2022/05/22 05:04:53;;;;;;;17.13;3.50;;;;;;;14.03;100.00;100351.81;5138800;27;20143;-85
2022/05/22 05:07:21;;;;;;;11.85;3.20;;;;;;;14.30;100.00;100349.31;5145827;27;20365;-85
2022/05/22 05:09:49;;;;;;;16.17;2.80;;;;;;;14.58;100.00;100368.78;5153307;27;20101;-85
2022/05/22 05:12:17;;;;;;;15.50;3.33;;;;;;;14.48;100.00;100373.72;5153004;27;20049;-84
2022/05/22 05:14:46;;;;;;;17.30;4.05;;;;;;;14.25;100.00;100332.94;5153550;27;20046;-85
2022/05/22 05:17:15;;;;;;;11.18;3.00;;;;;;;14.57;100.00;100364.41;5138427;27;20502;-84
2022/05/22 05:19:42;;;;;;;14.38;3.80;;;;;;;14.24;100.00;100336.53;5133432;27;20073;-85
2022/05/22 05:22:09;;;;;;;14.80;3.55;;;;;;;14.36;100.00;100356.88;5151403;27;20042;-85
2022/05/22 05:24:36;;;;;;;16.70;3.90;;;;;;;14.40;100.00;100371.53;5152463;27;20046;-85
2022/05/22 05:27:03;;;;;;;16.63;3.30;;;;;;;14.57;100.00;100352.09;5152754;27;20052;-85
2022/05/22 05:29:51;;;;;;;13.38;3.28;;;;;;;14.70;100.00;100370.69;5152116;27;20046;-85
2022/05/22 05:32:19;;;;;;;13.38;3.53;;;;;;;14.72;100.00;100352.97;5152781;27;20046;-85
2022/05/22 05:34:46;;;;;;;14.80;4.60;;;;;;;14.52;100.00;100362.06;5131612;27;20409;-85
2022/05/22 05:37:13;;;;;;;15.40;3.55;;;;;;;14.82;100.00;100345.38;5131279;27;20055;-85
2022/05/22 05:39:40;;;;;;;15.32;3.40;;;;;;;14.89;100.00;100359.00;5133003;27;20535;-85
2022/05/22 05:42:07;;;;;;;16.65;4.00;;;;;;;14.69;100.00;100332.09;5133657;27;20495;-85
2022/05/22 05:44:34;;;;;;;12.75;2.47;;;;;;;14.63;100.00;100334.28;5151085;27;20059;-85
2022/05/22 05:47:01;;;;;;;13.60;3.58;;;;;;;15.18;100.00;100342.22;5149987;27;20122;-84
2022/05/22 05:49:28;;;;;;;12.18;2.72;;;;;;;14.83;100.00;100362.88;5152009;27;20068;-85
2022/05/22 05:51:55;;;;;;;15.10;3.72;;;;;;;14.69;100.00;100334.72;5153400;27;20046;-84
2022/05/22 05:54:34;;;;;;;13.80;2.88;;;;;;;14.77;100.00;100335.09;5152763;27;20048;-85
2022/05/22 05:57:01;;;;;;;12.82;3.10;;;;;;;14.26;100.00;100323.28;5148737;27;20053;-85
2022/05/22 05:59:28;;;;;;;12.52;3.72;;;;;;;14.44;100.00;100354.59;5132282;27;20047;-85
2022/05/22 06:01:55;;;;;;;13.23;3.22;;;;;;;14.53;100.00;100329.50;5139413;27;20055;-85
2022/05/22 06:04:21;;;;;;;12.65;2.92;;;;;;;14.68;100.00;100311.09;5138475;27;20136;-85
2022/05/22 06:06:48;;;;;;;18.90;3.88;;;;;;;15.31;100.00;100315.91;5141347;27;20099;-84
2022/05/22 06:09:15;;;;;;;14.43;3.63;;;;;;;15.35;100.00;100303.38;5144016;27;20540;-85
2022/05/22 06:11:43;;;;;;;11.77;3.13;;;;;;;15.59;100.00;100282.47;5140100;27;20058;-85
2022/05/22 06:14:10;;;;;;;12.45;3.22;;;;;;;15.18;100.00;100321.13;5150583;27;20039;-85
2022/05/22 06:16:37;;;;;;;12.48;2.92;;;;;;;14.93;100.00;100292.84;5133180;27;20080;-85
2022/05/22 06:19:04;;;;;;;11.52;3.33;;;;;;;15.36;100.00;100305.06;5144749;27;20050;-85
2022/05/22 06:21:31;;;;;;;14.38;3.28;;;;;;;15.06;100.00;100300.81;5137756;27;20149;-85
2022/05/22 06:23:58;;;;;;;11.15;3.10;;;;;;;14.74;100.00;100279.13;5147979;27;20481;-85
2022/05/22 06:26:25;;;;;;;15.32;2.88;;;;;;;14.38;100.00;100310.22;5142228;27;20051;-85
2022/05/22 06:28:52;;;;;;;13.90;3.30;;;;;;;15.14;100.00;100311.72;5130614;28;20702;-85
2022/05/22 06:31:18;;;;;;;14.05;3.15;;;;;;;14.67;100.00;100280.44;5132506;27;20120;-84
2022/05/22 06:33:46;;;;;;;18.77;4.03;;;;;;;14.50;100.00;100281.44;5148293;27;20046;-86
2022/05/22 06:36:18;;;;;;;12.52;2.97;;;;;;;14.37;100.00;100294.50;5149649;27;20465;-86
2022/05/22 06:41:44;;;;;;;12.50;3.55;;;;;;;14.86;100.00;100261.69;5132027;27;20054;-86
2022/05/22 06:44:11;;;;;;;15.90;3.20;;;;;;;15.07;100.00;100309.56;5149657;27;20469;-86
2022/05/22 06:46:38;;;;;;;17.10;3.97;;;;;;;14.90;100.00;100292.19;5136424;27;20046;-86
2022/05/22 06:49:04;;;;;;;21.63;4.55;;;;;;;14.94;100.00;100291.03;5151163;27;20046;-86
2022/05/22 06:51:31;;;;;;;18.30;4.35;;;;;;;14.76;100.00;100280.69;5147261;27;20083;-86
2022/05/22 06:53:58;;;;;;;15.32;3.47;;;;;;;14.87;100.00;100289.72;5130690;28;20039;-86
2022/05/22 06:56:25;;;;;;;16.52;2.90;;;;;;;15.13;100.00;100294.19;5136197;27;20043;-86
2022/05/22 06:58:51;;;;;;;15.25;3.75;;;;;;;14.89;100.00;100298.38;5152350;27;20054;-86
2022/05/22 07:01:18;;;;;;;17.02;3.97;;;;;;;14.65;100.00;100285.78;5154438;27;20050;-85
2022/05/22 07:03:45;;;;;;;18.80;3.65;;;;;;;14.71;100.00;100292.47;5149207;27;20488;-85
2022/05/22 07:06:12;;;;;;;20.27;3.50;;;;;;;14.55;100.00;100297.81;5149958;27;20043;-87
2022/05/22 07:08:39;;;;;;;16.58;4.13;;;;;;;14.30;100.00;100303.72;5156345;27;20073;-87
2022/05/22 07:13:51;;;;;;;13.43;3.55;;;;;;;14.42;100.00;100300.34;5156216;27;20053;-87
2022/05/22 07:16:18;;;;;;;14.15;3.20;;;;;;;14.48;100.00;100299.94;5154227;27;20042;-87
2022/05/22 07:18:51;;;;;;;20.02;4.40;;;;;;;14.70;100.00;100311.88;5155038;27;20082;-87
2022/05/22 07:21:17;;;;;;;17.40;3.60;;;;;;;14.86;100.00;100307.34;5145839;27;20057;-85
2022/05/22 07:23:44;;;;;;;15.20;3.67;;;;;;;14.66;100.00;100307.72;5153557;27;20043;-87
2022/05/22 07:26:12;;;;;;;15.95;3.42;;;;;;;14.70;100.00;100307.44;5133135;27;20066;-87
2022/05/22 07:28:39;;;;;;;22.67;3.90;;;;;;;14.25;100.00;100251.31;5134536;27;20472;-87
2022/05/22 07:31:13;;;;;;;11.70;3.22;;;;;;;14.56;100.00;100292.44;5154085;27;20215;-87
2022/05/22 07:33:40;;;;;;;14.93;3.35;;;;;;;14.44;100.00;100294.03;5155154;27;20051;-87
2022/05/22 07:36:07;;;;;;;17.02;3.50;;;;;;;14.62;100.00;100293.88;5150203;27;20065;-87
2022/05/22 07:38:34;;;;;;;16.45;3.35;;;;;;;14.22;100.00;100252.38;5136082;27;20047;-87
2022/05/22 07:41:01;;;;;;;17.60;4.40;;;;;;;14.55;100.00;100274.09;5155121;27;20050;-87
2022/05/22 07:43:27;;;;;;;15.80;3.95;;;;;;;14.63;100.00;100273.66;5155494;27;20042;-87
2022/05/22 07:45:55;;;;;;;14.88;3.53;;;;;;;14.84;100.00;100296.06;5152095;27;20046;-87
2022/05/22 07:48:22;;;;;;;21.88;4.05;;;;;;;14.44;100.00;100296.66;5134461;27;20055;-87
2022/05/22 07:51:02;;;;;;;15.32;3.17;;;;;;;14.90;100.00;100294.81;5144798;27;20051;-87
2022/05/22 07:53:29;;;;;;;19.75;3.70;;;;;;;14.60;100.00;100282.59;5155557;27;20047;-87
2022/05/22 07:55:57;;;;;;;24.55;3.88;;;;;;;14.47;100.00;100308.81;5152147;27;20057;-87
2022/05/22 07:58:26;;;;;;;12.50;3.08;;;;;;;14.94;100.00;100301.56;5147599;27;20111;-87
2022/05/22 08:00:54;;;;;;;17.77;3.88;;;;;;;14.78;100.00;100294.66;5153832;27;20049;-87
2022/05/22 08:03:21;;;;;;;16.45;3.55;;;;;;;14.91;100.00;100291.22;5153334;27;20055;-88
2022/05/22 08:05:48;;;;;;;16.98;3.80;;;;;;;14.49;100.00;100299.03;5152634;27;20373;-88
2022/05/22 08:08:16;;;;;;;17.77;4.22;;;;;;;14.45;100.00;100276.47;5132827;27;20051;-87
2022/05/22 08:10:43;;;;;;;15.13;3.67;;;;;;;14.48;100.00;100278.03;5146643;27;20099;-87
2022/05/22 08:13:11;;;;;;;18.90;4.15;;;;;;;14.33;100.00;100290.38;5153913;27;20153;-87
2022/05/22 08:15:40;;;;;;;15.27;3.30;;;;;;;14.40;100.00;100276.72;5154012;27;20043;-87
2022/05/22 08:18:08;;;;;;;14.40;3.00;;;;;;;14.84;100.00;100282.88;5142925;27;20064;-87
2022/05/22 08:20:37;;;;;;;11.38;3.25;;;;;;;14.37;100.00;100284.81;5133522;27;20043;-85
2022/05/22 08:23:08;;;;;;;13.70;3.80;;;;;;;14.33;100.00;100277.19;5150758;27;20502;-87
2022/05/22 08:25:35;;;;;;;12.52;3.33;;;;;;;14.86;100.00;100267.81;5144578;27;20039;-87
2022/05/22 08:28:04;;;;;;;13.40;3.70;;;;;;;15.02;100.00;100280.88;5150697;27;20042;-88
2022/05/22 08:30:32;;;;;;;18.38;3.95;;;;;;;14.60;100.00;100275.53;5139119;27;20055;-88
2022/05/22 08:32:59;;;;;;;16.08;3.90;;;;;;;14.53;100.00;100275.97;5146948;27;20050;-88
2022/05/22 08:35:31;;;;;;;16.83;3.22;;;;;;;14.80;100.00;100283.97;5148703;27;20539;-89
2022/05/22 08:37:59;;;;;;;16.48;3.58;;;;;;;14.64;100.00;100268.28;5150448;27;20074;-87
2022/05/22 08:40:33;;;;;;;13.75;3.42;;;;;;;14.91;100.00;100278.03;5153580;27;20057;-88
2022/05/22 08:43:07;;;;;;;14.40;3.70;;;;;;;14.86;100.00;100259.91;5146643;27;20047;-88
2022/05/22 08:45:42;;;;;;;12.68;3.22;;;;;;;14.91;100.00;100276.28;5142512;27;20133;-89
2022/05/22 08:48:21;;;;;;;16.50;3.33;;;;;;;14.97;100.00;100275.03;5143420;27;20129;-88
2022/05/22 08:50:49;;;;;;;15.45;3.30;;;;;;;15.13;100.00;100267.00;5145153;27;20057;-88
2022/05/22 08:53:30;;;;;;;15.60;3.13;;;;;;;15.06;100.00;100240.16;5154194;27;20060;-89
2022/05/22 08:58:58;;;;;;;14.23;3.30;;;;;;;15.46;100.00;100242.84;5145298;27;20061;-89
2022/05/22 09:01:53;;;;;;;15.77;4.07;;;;;;;15.50;100.00;100252.25;5145558;27;20058;-89
2022/05/22 09:04:43;;;;;;;13.32;2.70;;;;;;;15.18;100.00;100236.75;5149621;27;20047;-87
2022/05/22 09:07:32;;;;;;;11.48;3.30;;;;;;;15.25;100.00;100239.00;5139064;27;20047;-88
2022/05/22 09:10:09;;;;;;;17.50;3.63;;;;;;;15.62;100.00;100239.22;5134192;27;20400;-88
2022/05/22 09:12:52;;;;;;;16.38;3.92;;;;;;;15.11;100.00;100245.16;5135950;27;20051;-88
2022/05/22 09:15:45;;;;;;;16.30;4.57;;;;;;;14.92;100.00;100246.31;5139609;27;20038;-87
2022/05/22 09:18:28;;;;;;;14.27;3.30;;;;;;;15.03;100.00;100245.63;5121566;27;20066;-87
2022/05/22 09:21:14;;;;;;;17.40;3.67;;;;;;;15.13;100.00;100230.06;5139363;27;20039;-87
2022/05/22 09:23:47;;;;;;;19.88;4.20;;;;;;;15.26;100.00;100235.41;5146430;27;20043;-87
2022/05/22 09:26:38;;;;;;;15.80;3.53;;;;;;;15.50;100.00;100232.94;5145476;27;20043;-87
2022/05/22 09:29:52;;;;;;;20.20;4.22;;;;;;;15.06;100.00;100232.25;5141159;27;20057;-87
2022/05/22 09:32:47;;;;;;;18.38;4.32;;;;;;;15.39;100.00;100231.03;5139308;27;20073;-87
2022/05/22 09:35:19;;;;;;;20.95;3.67;;;;;;;15.47;100.00;100231.34;5138001;27;20500;-87
2022/05/22 09:38:10;;;;;;;16.17;3.10;;;;;;;15.87;100.00;100233.16;5143269;27;20415;-87
2022/05/22 09:40:55;;;;;;;19.38;3.60;;;;;;;16.19;100.00;100209.81;5138294;27;20369;-87
2022/05/22 09:44:02;;;;;;;14.30;3.13;;;;;;;15.71;100.00;100188.44;5150588;27;20064;-87
2022/05/22 09:47:00;;;;;;;17.25;3.42;;;;;;;16.31;100.00;100211.59;5143526;27;20488;-87
2022/05/22 09:49:47;;;;;;;16.30;3.60;;;;;;;15.64;100.00;100234.69;5137724;27;20046;-87
2022/05/22 09:53:00;;;;;;;16.83;3.95;;;;;;;16.37;100.00;100218.25;5130570;27;20039;-88
2022/05/22 09:55:51;;;;;;;20.13;4.25;;;;;;;15.83;100.00;100207.91;5135661;27;20034;-88
2022/05/22 09:58:43;;;;;;;18.00;3.13;;;;;;;16.64;100.00;100220.75;5131262;28;20487;-87
2022/05/22 10:01:18;;;;;;;14.45;3.20;;;;;;;17.05;100.00;100222.25;5137357;27;20046;-87
2022/05/22 10:04:19;;;;;;;14.60;3.05;;;;;;;16.61;100.00;100209.53;5143464;27;20047;-87
2022/05/22 10:07:09;;;;;;;14.27;3.50;;;;;;;16.85;100.00;100205.16;5130877;27;20053;-88
2022/05/22 10:09:43;;;;;;;11.35;2.92;;;;;;;17.05;100.00;100179.06;5141450;27;20137;-87
2022/05/22 10:12:13;;;;;;;14.68;2.85;;;;;;;17.22;100.00;100201.63;5152598;27;20081;-86
2022/05/22 10:15:21;;;;;;;13.02;3.22;;;;;;;17.72;100.00;100172.31;5137863;27;20047;-87
2022/05/22 10:18:14;;;;;;;18.02;3.50;;;;;;;17.57;100.00;100204.28;5147689;27;20126;-87
2022/05/22 10:20:40;;;;;;;20.40;3.95;;;;;;;17.62;100.00;100193.38;5148948;27;20069;-87
2022/05/22 10:23:10;;;;;;;13.05;2.88;;;;;;;17.86;100.00;100193.31;5140633;27;20069;-87
2022/05/22 10:26:05;;;;;;;11.27;2.95;;;;;;;17.09;100.00;100209.63;5141612;27;20779;-88
2022/05/22 10:28:57;;;;;;;14.30;3.33;;;;;;;17.42;100.00;100181.63;5137653;27;20043;-88
2022/05/22 10:31:33;;;;;;;14.45;3.90;;;;;;;17.49;100.00;100196.06;5149377;27;20114;-87
2022/05/22 10:34:04;;;;;;;20.60;4.15;;;;;;;18.16;100.00;100184.78;5140808;27;20528;-88
2022/05/22 10:36:38;;;;;;;14.25;3.03;;;;;;;18.48;100.00;100170.81;5153404;27;20042;-88
2022/05/22 10:39:09;;;;;;;12.60;2.97;;;;;;;18.69;100.00;100168.25;5136138;27;20370;-88
2022/05/22 10:44:50;;;;;;;10.95;2.85;;;;;;;19.63;100.00;100128.66;5143282;27;20125;-88
2022/05/22 10:47:35;;;;;;;10.02;2.40;;;;;;;19.48;100.00;100137.97;5150041;27;20053;-88
2022/05/22 10:50:16;;;;;;;13.18;2.88;;;;;;;19.30;100.00;100122.59;5150953;27;20050;-88
2022/05/22 10:52:44;;;;;;;16.67;3.30;;;;;;;19.06;100.00;100129.97;5154831;27;20137;-89
2022/05/22 10:55:24;;;;;;;15.38;3.20;;;;;;;18.90;100.00;100128.56;5154477;27;20049;-89
2022/05/22 10:58:03;;;;;;;9.18;2.70;;;;;;;18.78;100.00;100124.22;5144670;27;20053;-88
2022/05/22 11:00:30;;;;;;;10.55;2.65;;;;;;;18.55;100.00;100104.91;5145516;27;20057;-89
2022/05/22 11:03:09;;;;;;;10.38;2.85;;;;;;;19.15;100.00;100110.63;5141133;27;20134;-88
2022/05/22 11:05:36;;;;;;;10.88;2.55;;;;;;;19.68;100.00;100104.38;5151915;27;20050;-89
2022/05/22 11:08:04;;;;;;;12.02;2.83;;;;;;;19.00;100.00;100122.50;5143789;27;20086;-88
2022/05/22 11:10:40;;;;;;;12.80;2.33;;;;;;;19.00;100.00;100102.13;5148397;27;20536;-89
2022/05/22 11:13:09;;;;;;;13.85;3.38;;;;;;;18.69;100.00;100106.44;5149337;27;20407;-88
2022/05/22 11:15:42;;;;;;;11.65;2.65;;;;;;;18.87;100.00;100106.75;5154948;27;20496;-89
2022/05/22 11:18:26;;;;;;;12.73;3.20;;;;;;;18.10;100.00;100102.34;5140879;27;20047;-89
2022/05/22 11:20:53;;;;;;;14.32;3.25;;;;;;;17.75;100.00;100101.44;5155004;27;20055;-89
2022/05/22 11:23:35;;;;;;;10.88;2.38;;;;;;;18.45;100.00;100102.16;5142211;27;20073;-89
2022/05/22 11:26:21;;;;;;;10.88;3.25;;;;;;;17.78;100.00;100100.38;5151646;27;20047;-89
2022/05/22 11:28:57;;;;;;;10.68;2.63;;;;;;;17.89;100.00;100092.47;5141854;27;20047;-88
2022/05/22 11:31:41;;;;;;;10.65;2.70;;;;;;;18.19;100.00;100093.66;5154169;27;20096;-89
2022/05/22 11:34:11;;;;;;;9.20;2.65;;;;;;;18.16;100.00;100080.63;5155248;27;20476;-88
2022/05/22 11:36:53;;;;;;;11.32;2.88;;;;;;;17.80;100.00;100038.38;5146872;27;20051;-89
2022/05/22 11:39:45;;;;;;;10.13;2.70;;;;;;;18.49;100.00;100081.56;5143627;27;20039;-88
2022/05/22 11:42:21;;;;;;;10.98;2.22;;;;;;;19.01;100.00;100071.13;5149786;27;20177;-88
2022/05/22 11:45:15;;;;;;;8.73;2.20;;;;;;;18.84;100.00;100061.91;5148149;27;20434;-89